FYGA4: White River At Fayetteville, AR

                                SHEF ID:       FYGA4     White River near Fayetteville, A
STATION TYPE: Stream Gauge

PRECIP STAGE RIV-FLOW WTR-TEMP DIS-OXY PH CONDUCT BAT-LOAD
in ft cfs F mg/l su umho/cm volt
Ccp-Rev Ccp-Rev Ccp-Rev Ccp-Rev Ccp-Rev Ccp-Rev Ccp-Rev Ccp-Rev
(America/Chicago)
11/21 00:00 0.06 2.96 277 60.76 7.98 7.49 160 12.41
11/21 01:00 0.03 2.96 277 60.75 7.98 7.48 164 12.41
11/21 02:00 0.00 2.92 263 60.66 7.96 7.48 167 12.41
11/21 03:00 0.00 2.91 259 60.53 7.96 7.48 170 12.41
11/21 04:00 0.01 2.96 277 60.42 7.95 7.47 175 12.41
11/21 05:00 0.00 3.00 291 60.39 7.92 7.48 181 12.41
11/21 06:00 0.00 2.97 280 60.40 7.91 7.47 182 12.41
11/21 07:00 0.00 2.93 266 60.44 7.91 7.46 181 12.41
11/21 08:00 0.00 2.88 249 60.55 7.94 7.47 180 12.41
11/21 09:00 0.00 2.84 235 60.78 8.04 7.48 179 12.81
11/21 10:00 0.00 2.81 226 61.38 8.23 7.50 179 13.29
11/21 11:00 0.00 2.77 213 61.90 8.31 7.53 179 14.16
11/21 12:00 0.00 2.76 210 62.33 8.37 7.54 181 14.24
11/21 13:00 0.00 2.73 201 63.03 8.43 7.55 182 13.76
11/21 14:00 0.00 2.69 189 63.28 8.36 7.54 182 13.68
11/21 15:00 0.00 2.66 181 63.23 8.32 7.54 181 13.68
11/21 16:00 0.00 2.63 172 62.89 8.18 7.53 180 13.29
11/21 17:00 0.00 2.59 162 62.46 8.04 7.53 178 13.05
11/21 18:00 0.00 2.57 156 62.10 7.92 7.51 176 12.81
11/21 19:00 0.00 2.54 149 61.75 7.85 7.50 170 12.81
11/21 20:00 0.00 2.52 144 61.50 7.81 7.50 170 12.73
11/21 21:00 0.00 2.49 137 61.30 7.77 7.48 169 12.73
11/21 22:00 0.00 2.47 132 61.18 7.76 7.48 178 12.73
11/21 23:00 0.00 2.44 125 61.07 7.74 7.47 176 12.65
Data processed at Sat 22Nov2025 05:10 GMT

NOTICE: If you are parsing this page

Please convert to using our Data API. Starting January 1st, 2026 we will be migrating to: https://water.usace.army.mil with modern pages rendered in JavaScript. You will no longer be able to scrape this page! CWMSDataAPI (CDA)

Timeseries IDs (TSIDs)

TSIDs used from left to right in the data table
FAYE.Precip-Inc.Total.1Hour.1Hour.Ccp-Rev
FAYE.Stage.Inst.1Hour.0.Ccp-Rev
FAYE.Flow.Inst.1Hour.0.Ccp-Rev
FAYE.Temp-Water.Inst.1Hour.0.Ccp-Rev
FAYE.Conc-DO.Inst.1Hour.0.Ccp-Rev
FAYE.pH.Inst.1Hour.0.Ccp-Rev
FAYE.Cond-Water.Inst.1Hour.0.Ccp-Rev
FAYE.Volt-Battery Load.Inst.1Hour.0.Ccp-Rev

                            

All information presented herein is the property of the government of the United States of America and may be revised or deleted at any time without prior notice. Dissemination of this information without the expressed written consent of the Public Affairs Office, Tulsa District U.S. Army Corps of Engineers is strictly prohibited. These data are gathered electronically and, as presented, have NOT undergone any form of quality control. These data are NOT guaranteed to be valid or correct.